Time;durP1;ratioP1;P1;durP2;ratioP2;P2;SDS_P1;SDS_P2;PMS_P1;PMS_P2;Temp;Humidity;BMP_temperature;BMP_pressure;BME280_temperature;BME280_humidity;BME280_pressure;Samples;Min_cycle;Max_cycle;Signal;HPM_P1;HPM_P2
2022/01/23 00:03:44;;;;;;;39.10;15.18;;;;;;;;;;10464168;28;20053;-69
2022/01/23 00:08:46;;;;;;;41.45;15.65;;;;;;;;;;10463444;28;20061;-69
2022/01/23 00:19:11;;;;;;;32.95;13.35;;;;;;;;;;10436708;28;20280;-69
2022/01/23 00:34:54;;;;;;;34.13;12.95;;;;;;;;;;10514044;28;20056;-68
2022/01/23 00:39:57;;;;;;;24.88;11.50;;;;;;;;;;10584422;28;20056;-69
2022/01/23 00:45:15;;;;;;;28.25;11.77;;;;;;;;;;10571189;28;20063;-69
2022/01/23 00:50:17;;;;;;;26.63;11.82;;;;;;;;;;10591786;28;20235;-68
2022/01/23 00:55:19;;;;;;;35.17;12.82;;;;;;;;;;10563581;28;20056;-68
2022/01/23 01:00:23;;;;;;;32.42;12.15;;;;;;;;;;10562845;28;20089;-68
2022/01/23 01:05:27;;;;;;;41.70;14.88;;;;;;;;;;10561963;28;20382;-68
2022/01/23 01:10:36;;;;;;;31.08;13.88;;;;;;;;;;10562837;28;20044;-67
2022/01/23 01:15:59;;;;;;;35.92;13.43;;;;;;;;;;10574889;28;20044;-69
2022/01/23 01:31:47;;;;;;;40.97;14.20;;;;;;;;;;10564364;28;20232;-67
2022/01/23 01:36:51;;;;;;;32.22;13.05;;;;;;;;;;10559309;28;20040;-68
2022/01/23 01:41:56;;;;;;;33.22;13.50;;;;;;;;;;10560846;28;20448;-68
2022/01/23 01:47:00;;;;;;;33.13;13.70;;;;;;;;;;10560368;28;20081;-67
2022/01/23 01:52:04;;;;;;;32.65;14.68;;;;;;;;;;10558790;28;20051;-67
2022/01/23 01:57:09;;;;;;;34.90;14.35;;;;;;;;;;10559425;28;20156;-67
2022/01/23 02:13:09;;;;;;;32.42;14.45;;;;;;;;;;10572246;28;20043;-69
2022/01/23 02:18:27;;;;;;;32.40;14.35;;;;;;;;;;10572498;28;20051;-67
2022/01/23 02:23:56;;;;;;;30.73;13.80;;;;;;;;;;10569891;28;20040;-68
2022/01/23 02:55:42;;;;;;;28.42;12.10;;;;;;;;;;10555516;28;20055;-68
2022/01/23 03:00:50;;;;;;;31.35;12.25;;;;;;;;;;10557922;28;20048;-68
2022/01/23 03:06:16;;;;;;;25.05;11.57;;;;;;;;;;10556801;28;20240;-68
2022/01/23 03:11:44;;;;;;;26.85;11.48;;;;;;;;;;10556364;28;20043;-68
2022/01/23 03:27:48;;;;;;;29.67;12.27;;;;;;;;;;10522666;28;20052;-68
2022/01/23 03:32:51;;;;;;;28.02;11.68;;;;;;;;;;10555931;28;20256;-68
2022/01/23 03:37:53;;;;;;;28.65;12.35;;;;;;;;;;10553730;28;20058;-67
2022/01/23 03:43:08;;;;;;;36.53;13.50;;;;;;;;;;10556335;28;20081;-68
2022/01/23 03:53:26;;;;;;;30.95;13.05;;;;;;;;;;10555535;28;20052;-68
2022/01/23 03:58:30;;;;;;;27.00;12.13;;;;;;;;;;10555881;28;20049;-68
2022/01/23 04:03:34;;;;;;;29.38;12.35;;;;;;;;;;10555099;28;20224;-68
2022/01/23 04:08:37;;;;;;;33.13;13.98;;;;;;;;;;10555504;28;20051;-68
2022/01/23 04:13:46;;;;;;;30.77;13.10;;;;;;;;;;10537039;28;20040;-68
2022/01/23 04:35:06;;;;;;;33.75;14.32;;;;;;;;;;10578066;28;20032;-68
2022/01/23 04:45:32;;;;;;;37.95;15.68;;;;;;;;;;10528079;28;20102;-68
2022/01/23 05:01:24;;;;;;;33.15;14.82;;;;;;;;;;10576035;28;20062;-68
2022/01/23 05:06:30;;;;;;;36.72;13.77;;;;;;;;;;10576384;28;20272;-68
2022/01/23 05:11:32;;;;;;;35.78;13.80;;;;;;;;;;10561537;28;20051;-67
2022/01/23 05:16:36;;;;;;;38.28;13.48;;;;;;;;;;10561686;28;20129;-68
2022/01/23 05:22:05;;;;;;;33.95;14.35;;;;;;;;;;10560762;28;20044;-68
2022/01/23 05:27:09;;;;;;;31.02;14.20;;;;;;;;;;10574204;28;20332;-69
2022/01/23 05:32:14;;;;;;;32.77;14.20;;;;;;;;;;10559539;28;20051;-68
2022/01/23 05:37:17;;;;;;;28.33;12.95;;;;;;;;;;10558892;28;20342;-68
2022/01/23 05:42:20;;;;;;;37.05;14.57;;;;;;;;;;10573318;28;20286;-68
2022/01/23 05:47:23;;;;;;;29.05;13.82;;;;;;;;;;10559748;28;20040;-68
2022/01/23 05:52:25;;;;;;;50.90;16.40;;;;;;;;;;10559345;28;20067;-69
2022/01/23 05:57:28;;;;;;;45.63;14.43;;;;;;;;;;10559129;28;20051;-67
2022/01/23 06:02:32;;;;;;;60.90;18.75;;;;;;;;;;10558621;28;20102;-69
2022/01/23 06:07:35;;;;;;;39.28;15.30;;;;;;;;;;10559700;28;20063;-70
2022/01/23 06:12:37;;;;;;;33.28;14.48;;;;;;;;;;10557508;28;20288;-69
2022/01/23 06:17:41;;;;;;;40.83;14.25;;;;;;;;;;10559470;28;20040;-69
2022/01/23 06:22:45;;;;;;;40.80;14.07;;;;;;;;;;10557312;28;20040;-70
2022/01/23 06:27:48;;;;;;;35.05;14.10;;;;;;;;;;10558253;28;20055;-69
2022/01/23 06:32:52;;;;;;;47.70;16.27;;;;;;;;;;10557627;28;20035;-70
2022/01/23 06:37:54;;;;;;;32.45;13.15;;;;;;;;;;10557575;28;20117;-68
2022/01/23 06:42:57;;;;;;;27.00;12.05;;;;;;;;;;10556110;28;20040;-68
2022/01/23 06:48:01;;;;;;;31.73;13.30;;;;;;;;;;10558259;28;20086;-69
2022/01/23 06:53:03;;;;;;;36.80;13.50;;;;;;;;;;10557092;28;20055;-68
2022/01/23 06:58:05;;;;;;;52.75;17.80;;;;;;;;;;10557173;28;20067;-69
2022/01/23 07:03:10;;;;;;;44.25;18.02;;;;;;;;;;10555978;28;20052;-71
2022/01/23 07:08:12;;;;;;;31.73;13.87;;;;;;;;;;10557985;28;20073;-70
2022/01/23 07:13:14;;;;;;;31.83;14.00;;;;;;;;;;10557310;28;20036;-72
2022/01/23 07:18:19;;;;;;;29.73;13.73;;;;;;;;;;10557087;28;20040;-71
2022/01/23 07:23:22;;;;;;;32.08;16.00;;;;;;;;;;10558646;28;20048;-68
2022/01/23 07:28:35;;;;;;;38.92;21.13;;;;;;;;;;10556272;28;20040;-70
2022/01/23 07:33:39;;;;;;;37.40;19.02;;;;;;;;;;10559509;28;20240;-70
2022/01/23 07:38:42;;;;;;;41.13;19.38;;;;;;;;;;10556398;28;20363;-69
2022/01/23 07:43:45;;;;;;;32.67;17.23;;;;;;;;;;10555409;28;20056;-68
2022/01/23 07:48:51;;;;;;;33.15;15.80;;;;;;;;;;10555676;28;20059;-69
2022/01/23 07:53:53;;;;;;;39.42;17.15;;;;;;;;;;10569963;28;20036;-69
2022/01/23 07:58:56;;;;;;;47.72;19.95;;;;;;;;;;10555357;28;20044;-69
2022/01/23 08:03:59;;;;;;;44.67;20.20;;;;;;;;;;10562369;28;20239;-69
2022/01/23 08:09:01;;;;;;;34.75;15.30;;;;;;;;;;10565232;28;20052;-69
2022/01/23 08:14:04;;;;;;;30.63;14.13;;;;;;;;;;10560518;28;20040;-70
2022/01/23 08:19:07;;;;;;;31.30;13.68;;;;;;;;;;10564333;28;20051;-69
2022/01/23 08:24:11;;;;;;;50.35;17.38;;;;;;;;;;10563440;28;20197;-69
2022/01/23 08:29:13;;;;;;;49.15;21.38;;;;;;;;;;10563268;28;20040;-69
2022/01/23 08:34:17;;;;;;;65.15;25.63;;;;;;;;;;10564089;28;20044;-69
2022/01/23 08:39:22;;;;;;;48.30;21.05;;;;;;;;;;10562772;28;20059;-69
2022/01/23 08:44:26;;;;;;;58.28;24.63;;;;;;;;;;10559251;28;20047;-69
2022/01/23 08:49:30;;;;;;;43.97;20.60;;;;;;;;;;10562532;28;20044;-69
2022/01/23 08:54:33;;;;;;;122.93;52.40;;;;;;;;;;10561908;28;20331;-68
2022/01/23 08:59:35;;;;;;;100.45;42.97;;;;;;;;;;10560465;28;20043;-69
2022/01/23 09:04:39;;;;;;;65.57;24.45;;;;;;;;;;10503765;28;20070;-67
2022/01/23 09:09:41;;;;;;;39.17;18.60;;;;;;;;;;10562669;28;20059;-69
2022/01/23 09:14:43;;;;;;;42.10;17.27;;;;;;;;;;10561318;28;20044;-68
2022/01/23 09:19:47;;;;;;;54.90;24.42;;;;;;;;;;10562954;28;20059;-68
2022/01/23 09:24:50;;;;;;;48.77;20.57;;;;;;;;;;10561730;28;20048;-69
2022/01/23 09:29:54;;;;;;;61.13;22.35;;;;;;;;;;10558326;28;20081;-68
2022/01/23 09:34:58;;;;;;;58.83;22.30;;;;;;;;;;10560458;28;20052;-67
2022/01/23 09:40:01;;;;;;;59.83;25.17;;;;;;;;;;10559606;28;20097;-70
2022/01/23 09:45:08;;;;;;;63.95;27.15;;;;;;;;;;10542136;28;20343;-69
2022/01/23 09:50:15;;;;;;;57.13;26.58;;;;;;;;;;10561369;28;20186;-70
2022/01/23 09:55:18;;;;;;;63.13;30.25;;;;;;;;;;10530688;28;20056;-70
2022/01/23 10:00:25;;;;;;;70.35;29.13;;;;;;;;;;10555322;28;20090;-67
2022/01/23 10:05:29;;;;;;;60.53;25.25;;;;;;;;;;10559885;28;20039;-68
2022/01/23 10:10:36;;;;;;;53.83;25.17;;;;;;;;;;10548617;28;20052;-69
2022/01/23 10:15:38;;;;;;;46.60;21.52;;;;;;;;;;10565832;28;20064;-69
2022/01/23 10:20:42;;;;;;;44.38;20.45;;;;;;;;;;10552059;28;20040;-69
2022/01/23 10:25:49;;;;;;;42.92;18.90;;;;;;;;;;10555890;28;20055;-69
2022/01/23 10:30:55;;;;;;;40.67;20.13;;;;;;;;;;10558800;28;20124;-69
2022/01/23 10:36:02;;;;;;;41.35;18.30;;;;;;;;;;10554939;28;20063;-70
2022/01/23 10:41:27;;;;;;;37.75;17.67;;;;;;;;;;10558554;28;20071;-69
2022/01/23 10:46:53;;;;;;;36.80;17.60;;;;;;;;;;10558774;28;20051;-67
2022/01/23 10:51:57;;;;;;;36.15;17.17;;;;;;;;;;10516494;28;20059;-68
2022/01/23 10:57:06;;;;;;;36.38;17.02;;;;;;;;;;10554877;28;20056;-71
2022/01/23 11:02:10;;;;;;;41.03;18.17;;;;;;;;;;10554324;28;20097;-70
2022/01/23 11:07:14;;;;;;;57.40;25.55;;;;;;;;;;10536553;28;20040;-67
2022/01/23 11:12:31;;;;;;;43.85;18.67;;;;;;;;;;10542522;28;20059;-69
2022/01/23 11:17:49;;;;;;;35.72;18.58;;;;;;;;;;10548127;28;20041;-69
2022/01/23 11:23:02;;;;;;;43.95;19.30;;;;;;;;;;10550529;28;20087;-67
2022/01/23 11:28:06;;;;;;;38.58;19.55;;;;;;;;;;10558703;28;20031;-68
2022/01/23 11:33:10;;;;;;;41.42;20.42;;;;;;;;;;10523481;28;20040;-72
2022/01/23 11:38:18;;;;;;;39.97;18.05;;;;;;;;;;10556646;28;20336;-69
2022/01/23 11:54:07;;;;;;;27.15;14.05;;;;;;;;;;10556915;28;20051;-67
2022/01/23 11:59:25;;;;;;;28.13;13.85;;;;;;;;;;10554291;28;20063;-68
2022/01/23 12:04:33;;;;;;;29.15;14.00;;;;;;;;;;10538500;28;20233;-69
2022/01/23 12:09:37;;;;;;;24.27;13.00;;;;;;;;;;10553557;28;20059;-69
2022/01/23 12:19:57;;;;;;;31.65;15.35;;;;;;;;;;10528600;28;20058;-68
2022/01/23 12:25:18;;;;;;;31.80;14.30;;;;;;;;;;10556008;28;20048;-69
2022/01/23 12:30:40;;;;;;;33.15;15.48;;;;;;;;;;10567745;28;20051;-70
2022/01/23 12:35:45;;;;;;;23.35;12.23;;;;;;;;;;10555601;28;20079;-69
2022/01/23 12:40:50;;;;;;;31.90;13.30;;;;;;;;;;10555993;28;20056;-69
2022/01/23 12:45:55;;;;;;;28.13;12.95;;;;;;;;;;10556678;28;20259;-69
2022/01/23 12:50:59;;;;;;;37.42;15.68;;;;;;;;;;10562183;28;20074;-68
2022/01/23 12:56:05;;;;;;;55.60;18.40;;;;;;;;;;10546276;28;20259;-68
2022/01/23 13:01:09;;;;;;;47.85;19.45;;;;;;;;;;10521465;28;20185;-67
2022/01/23 13:06:12;;;;;;;45.13;16.95;;;;;;;;;;10537945;28;20044;-67
2022/01/23 13:11:50;;;;;;;50.03;18.85;;;;;;;;;;10562144;28;20059;-68
2022/01/23 13:17:13;;;;;;;36.33;15.82;;;;;;;;;;10523426;28;20053;-68
2022/01/23 13:33:14;;;;;;;39.53;17.75;;;;;;;;;;10566652;28;20060;-67
2022/01/23 13:38:17;;;;;;;56.88;23.10;;;;;;;;;;10572863;28;20067;-69
2022/01/23 13:59:36;;;;;;;57.63;25.25;;;;;;;;;;10536644;28;20071;-69
2022/01/23 14:04:42;;;;;;;52.28;22.42;;;;;;;;;;10559785;28;20054;-69
2022/01/23 14:09:45;;;;;;;60.20;25.20;;;;;;;;;;10573184;28;20060;-69
2022/01/23 14:14:57;;;;;;;73.00;26.48;;;;;;;;;;10551392;28;20036;-68
2022/01/23 14:20:02;;;;;;;52.20;20.17;;;;;;;;;;10547702;28;20371;-70
2022/01/23 14:25:14;;;;;;;54.15;21.85;;;;;;;;;;10559627;28;20044;-68
2022/01/23 14:30:23;;;;;;;50.90;21.33;;;;;;;;;;10572579;28;20102;-69
2022/01/23 14:35:28;;;;;;;58.13;22.90;;;;;;;;;;10572665;28;20040;-69
2022/01/23 14:40:31;;;;;;;43.72;18.40;;;;;;;;;;10558887;28;20060;-69
2022/01/23 14:45:37;;;;;;;37.50;16.70;;;;;;;;;;10559626;28;20047;-70
2022/01/23 14:50:42;;;;;;;38.13;17.52;;;;;;;;;;10573600;28;20043;-69
2022/01/23 14:55:48;;;;;;;50.88;21.67;;;;;;;;;;10558442;28;20066;-68
2022/01/23 15:00:53;;;;;;;48.22;18.98;;;;;;;;;;10559370;28;20040;-67
2022/01/23 15:05:56;;;;;;;37.13;17.75;;;;;;;;;;10572929;28;20039;-71
2022/01/23 15:11:01;;;;;;;45.92;20.40;;;;;;;;;;10556956;28;20055;-70
2022/01/23 15:16:06;;;;;;;49.53;20.70;;;;;;;;;;10571707;28;20055;-69
2022/01/23 15:21:08;;;;;;;56.40;22.43;;;;;;;;;;10557576;28;20346;-70
2022/01/23 15:26:11;;;;;;;65.60;25.88;;;;;;;;;;10555572;28;20188;-69
2022/01/23 15:31:15;;;;;;;88.07;35.25;;;;;;;;;;10556350;28;20067;-68
2022/01/23 15:36:18;;;;;;;81.18;31.42;;;;;;;;;;10557634;28;20052;-70
2022/01/23 15:41:21;;;;;;;81.75;30.20;;;;;;;;;;10556112;28;20052;-68
2022/01/23 15:46:25;;;;;;;103.63;36.63;;;;;;;;;;10556991;28;20056;-68
2022/01/23 15:51:27;;;;;;;96.53;39.10;;;;;;;;;;10555100;28;20062;-70
2022/01/23 15:56:30;;;;;;;108.38;41.53;;;;;;;;;;10537391;28;20051;-69
2022/01/23 16:01:34;;;;;;;126.25;47.40;;;;;;;;;;10550713;28;20074;-69
2022/01/23 16:06:37;;;;;;;96.67;40.07;;;;;;;;;;10543584;28;20055;-69
2022/01/23 16:11:40;;;;;;;134.80;47.38;;;;;;;;;;10552664;28;20047;-69
2022/01/23 16:16:43;;;;;;;127.28;50.58;;;;;;;;;;10556528;28;20055;-69
2022/01/23 16:21:46;;;;;;;106.72;42.20;;;;;;;;;;10558655;28;20101;-70
2022/01/23 16:26:49;;;;;;;94.28;37.35;;;;;;;;;;10563596;28;20044;-69
2022/01/23 16:31:54;;;;;;;91.88;37.35;;;;;;;;;;10560383;28;20036;-68
2022/01/23 16:36:56;;;;;;;88.72;37.80;;;;;;;;;;10564312;28;20060;-69
2022/01/23 16:41:59;;;;;;;112.82;47.08;;;;;;;;;;10564444;28;20054;-69
2022/01/23 16:47:04;;;;;;;134.02;56.28;;;;;;;;;;10564773;28;20043;-69
2022/01/23 16:52:09;;;;;;;119.15;47.45;;;;;;;;;;10563574;28;20089;-70
2022/01/23 16:57:12;;;;;;;91.55;39.13;;;;;;;;;;10564483;28;20033;-68
2022/01/23 17:02:15;;;;;;;91.20;39.70;;;;;;;;;;10563857;28;20039;-70
2022/01/23 17:07:18;;;;;;;101.85;41.55;;;;;;;;;;10563671;28;20359;-70
2022/01/23 17:12:20;;;;;;;94.28;39.40;;;;;;;;;;10563571;28;20105;-68
2022/01/23 17:17:24;;;;;;;88.70;37.88;;;;;;;;;;10563013;28;20048;-70
2022/01/23 17:22:26;;;;;;;86.30;36.85;;;;;;;;;;10561598;28;20040;-66
2022/01/23 17:27:29;;;;;;;88.13;37.10;;;;;;;;;;10562011;28;20093;-70
2022/01/23 17:32:32;;;;;;;92.10;39.65;;;;;;;;;;10562983;28;20060;-70
2022/01/23 17:37:35;;;;;;;97.00;40.17;;;;;;;;;;10561600;28;20056;-67
2022/01/23 17:42:37;;;;;;;103.57;43.58;;;;;;;;;;10537624;28;20078;-68
2022/01/23 17:48:08;;;;;;;97.10;43.20;;;;;;;;;;10561996;28;20063;-68
2022/01/23 17:53:10;;;;;;;101.63;43.67;;;;;;;;;;10576536;28;20047;-68
2022/01/23 17:58:12;;;;;;;94.63;41.40;;;;;;;;;;10560932;28;20274;-69
2022/01/23 18:03:17;;;;;;;86.72;36.92;;;;;;;;;;10559401;28;20057;-68
2022/01/23 18:08:20;;;;;;;81.80;35.13;;;;;;;;;;10560858;28;20047;-69
2022/01/23 18:13:24;;;;;;;81.57;34.33;;;;;;;;;;10560203;28;20060;-67
2022/01/23 18:18:28;;;;;;;82.13;35.95;;;;;;;;;;10561077;28;20066;-67
2022/01/23 18:23:30;;;;;;;83.68;38.30;;;;;;;;;;10555779;28;20116;-70
2022/01/23 18:28:36;;;;;;;84.05;37.55;;;;;;;;;;10553937;28;20048;-68
2022/01/23 18:33:41;;;;;;;;;;;;;;;;;;10563499;28;20102;-69
2022/01/23 18:38:44;;;;;;;82.63;35.27;;;;;;;;;;10548275;28;19960;-70
2022/01/23 18:43:46;;;;;;;74.72;35.95;;;;;;;;;;10555623;28;20052;-71
2022/01/23 18:48:53;;;;;;;83.13;37.65;;;;;;;;;;10572143;28;20040;-67
2022/01/23 18:54:05;;;;;;;81.55;38.08;;;;;;;;;;10559592;28;21241;-68
2022/01/23 18:59:11;;;;;;;101.28;42.90;;;;;;;;;;10574111;28;20527;-71
2022/01/23 19:04:16;;;;;;;121.32;55.05;;;;;;;;;;10547842;28;20038;-69
2022/01/23 19:09:22;;;;;;;96.80;44.17;;;;;;;;;;10542125;28;20047;-69
2022/01/23 19:14:24;;;;;;;115.90;50.22;;;;;;;;;;10571467;28;20248;-70
2022/01/23 19:19:28;;;;;;;111.35;51.17;;;;;;;;;;10558735;28;20035;-68
2022/01/23 19:24:31;;;;;;;130.27;56.45;;;;;;;;;;10558193;28;20093;-68
2022/01/23 19:29:34;;;;;;;143.98;65.88;;;;;;;;;;10553978;28;20039;-69
2022/01/23 19:34:38;;;;;;;185.13;84.90;;;;;;;;;;10557712;28;20103;-68
2022/01/23 19:39:41;;;;;;;152.43;69.28;;;;;;;;;;10556722;28;20060;-68
2022/01/23 19:44:47;;;;;;;126.00;56.55;;;;;;;;;;10558333;28;20277;-71
2022/01/23 19:49:51;;;;;;;121.15;54.55;;;;;;;;;;10571581;28;20040;-71
2022/01/23 19:54:54;;;;;;;141.52;59.20;;;;;;;;;;10557506;28;20043;-69
2022/01/23 19:59:57;;;;;;;220.07;86.15;;;;;;;;;;10566342;28;20208;-71
2022/01/23 20:05:01;;;;;;;171.57;70.65;;;;;;;;;;10566039;28;20051;-70
2022/01/23 20:10:21;;;;;;;132.38;57.60;;;;;;;;;;10567115;28;20043;-69
2022/01/23 20:15:24;;;;;;;130.60;55.10;;;;;;;;;;10579740;28;20055;-71
2022/01/23 20:20:28;;;;;;;112.60;51.25;;;;;;;;;;10566616;28;20047;-70
2022/01/23 20:25:31;;;;;;;111.90;52.90;;;;;;;;;;10565517;28;20048;-71
2022/01/23 20:30:34;;;;;;;111.22;46.42;;;;;;;;;;10566774;28;20045;-70
2022/01/23 20:35:37;;;;;;;100.50;41.38;;;;;;;;;;10562827;28;20045;-71
2022/01/23 20:40:54;;;;;;;99.50;42.72;;;;;;;;;;10560662;28;20101;-71
2022/01/23 20:45:57;;;;;;;108.15;43.03;;;;;;;;;;10566107;28;20056;-67
2022/01/23 20:51:01;;;;;;;114.53;43.67;;;;;;;;;;10563611;28;20097;-70
2022/01/23 20:56:05;;;;;;;124.15;47.70;;;;;;;;;;10559184;28;20043;-70
2022/01/23 21:01:12;;;;;;;140.10;52.28;;;;;;;;;;10553534;28;20067;-68
2022/01/23 21:06:16;;;;;;;144.65;54.60;;;;;;;;;;10325201;28;65731;-69
2022/01/23 21:11:24;;;;;;;147.80;52.45;;;;;;;;;;10477973;28;20032;-69
2022/01/23 21:16:39;;;;;;;145.13;53.75;;;;;;;;;;10494060;28;20041;-72
2022/01/23 21:21:58;;;;;;;138.80;52.17;;;;;;;;;;10494709;28;20041;-70
2022/01/23 21:32:59;;;;;;;126.20;48.80;;;;;;;;;;10485494;28;20086;-70
2022/01/23 21:43:37;;;;;;;;;;;;;;;;;;10394414;28;20064;-68
2022/01/23 21:48:40;;;;;;;129.70;47.53;;;;;;;;;;10362756;28;20186;-68
2022/01/23 21:53:44;;;;;;;135.02;53.58;;;;;;;;;;10333328;28;20054;-68
2022/01/23 21:58:46;;;;;;;118.70;48.72;;;;;;;;;;10350612;28;20361;-68
2022/01/23 22:03:49;;;;;;;151.70;59.30;;;;;;;;;;10351325;28;20077;-69
2022/01/23 22:08:53;;;;;;;178.32;66.43;;;;;;;;;;10354128;28;20100;-69
2022/01/23 22:19:15;;;;;;;133.18;52.35;;;;;;;;;;10491969;28;20041;-68
2022/01/23 22:29:39;;;;;;;137.80;51.97;;;;;;;;;;10477771;28;20406;-71
2022/01/23 22:34:41;;;;;;;132.82;52.80;;;;;;;;;;10477732;28;20041;-69
2022/01/23 22:39:46;;;;;;;134.65;58.17;;;;;;;;;;10477803;28;20106;-74
2022/01/23 22:44:59;;;;;;;129.93;55.13;;;;;;;;;;10478396;28;20115;-73
2022/01/23 22:50:02;;;;;;;131.02;57.67;;;;;;;;;;10478542;28;20060;-70
2022/01/23 22:55:07;;;;;;;138.75;57.35;;;;;;;;;;10479832;28;20060;-71
2022/01/23 23:00:15;;;;;;;145.65;61.97;;;;;;;;;;10476782;28;20051;-72
2022/01/23 23:05:18;;;;;;;146.52;62.67;;;;;;;;;;10488715;28;20045;-73
2022/01/23 23:10:22;;;;;;;147.02;66.30;;;;;;;;;;10475463;28;20045;-70
2022/01/23 23:15:34;;;;;;;152.40;70.13;;;;;;;;;;10474148;28;20049;-69
2022/01/23 23:20:40;;;;;;;147.82;66.32;;;;;;;;;;10475814;28;20049;-68
2022/01/23 23:25:44;;;;;;;139.75;64.13;;;;;;;;;;10488158;28;20037;-70
2022/01/23 23:30:46;;;;;;;147.82;64.80;;;;;;;;;;10473584;28;20344;-69
2022/01/23 23:35:49;;;;;;;140.48;63.75;;;;;;;;;;10472344;28;20213;-70
2022/01/23 23:41:03;;;;;;;147.77;64.43;;;;;;;;;;10473662;28;20259;-67
2022/01/23 23:46:09;;;;;;;148.90;65.85;;;;;;;;;;10473829;28;20056;-72
2022/01/23 23:51:12;;;;;;;148.73;66.07;;;;;;;;;;10471840;28;20159;-71
2022/01/23 23:56:16;;;;;;;157.38;66.75;;;;;;;;;;10472505;28;20040;-68
